createdAt,value
2017-11-19T00:00:50.965Z,99.50
2017-11-19T00:02:52.206Z,99.50
2017-11-19T00:04:53.275Z,99.40
2017-11-19T00:06:57.027Z,99.30
2017-11-19T00:09:03.819Z,99.10
2017-11-19T00:11:05.054Z,99.10
2017-11-19T00:13:06.256Z,99.00
2017-11-19T00:15:11.024Z,99.00
2017-11-19T00:17:12.039Z,99.00
2017-11-19T00:21:25.195Z,99.10
2017-11-19T00:23:26.415Z,99.30
2017-11-19T00:25:34.799Z,99.40
2017-11-19T00:27:35.838Z,99.50
2017-11-19T00:29:37.947Z,99.30
2017-11-19T00:31:43.213Z,99.40
2017-11-19T00:33:44.731Z,99.40
2017-11-19T00:35:49.105Z,99.40
2017-11-19T00:37:50.515Z,99.50
2017-11-19T00:39:54.551Z,99.20
2017-11-19T00:41:55.806Z,99.10
2017-11-19T00:44:00.441Z,99.10
2017-11-19T00:46:01.483Z,99.20
2017-11-19T00:48:02.549Z,99.20
2017-11-19T00:50:04.405Z,99.10
2017-11-19T00:52:05.414Z,99.00
2017-11-19T00:54:06.518Z,99.10
2017-11-19T00:56:08.071Z,99.30
2017-11-19T00:58:13.705Z,99.30
2017-11-19T01:02:54.231Z,99.10
2017-11-19T01:07:32.958Z,98.80
2017-11-19T01:09:34.175Z,99.00
2017-11-19T01:11:35.234Z,98.90
2017-11-19T01:13:49.923Z,98.90
2017-11-19T01:15:56.783Z,98.90
2017-11-19T01:18:00.300Z,98.90
2017-11-19T01:20:01.522Z,98.90
2017-11-19T01:22:02.689Z,98.80
2017-11-19T01:26:42.579Z,98.80
2017-11-19T01:28:43.597Z,98.80
2017-11-19T01:30:44.691Z,98.80
2017-11-19T01:32:45.678Z,98.90
2017-11-19T01:34:46.677Z,98.80
2017-11-19T01:36:47.709Z,99.00
2017-11-19T01:38:48.732Z,98.90
2017-11-19T01:40:49.843Z,99.10
2017-11-19T01:42:50.973Z,99.00
2017-11-19T01:44:51.993Z,99.00
2017-11-19T01:46:53.017Z,99.00
2017-11-19T01:48:54.028Z,99.00
2017-11-19T01:50:55.045Z,98.90
2017-11-19T01:52:56.010Z,98.80
2017-11-19T01:54:57.066Z,98.70
2017-11-19T01:56:58.042Z,98.80
2017-11-19T01:58:59.163Z,98.80
2017-11-19T02:01:00.185Z,98.70
2017-11-19T02:03:01.151Z,98.50
2017-11-19T02:05:02.183Z,98.60
2017-11-19T02:07:03.273Z,98.50
2017-11-19T02:09:04.295Z,98.20
2017-11-19T02:11:05.289Z,98.10
2017-11-19T02:13:06.329Z,98.00
2017-11-19T02:15:07.366Z,97.90
2017-11-19T02:17:08.368Z,98.10
2017-11-19T02:19:09.350Z,97.70
2017-11-19T02:21:10.353Z,97.90
2017-11-19T02:23:11.467Z,98.00
2017-11-19T02:25:12.488Z,97.80
2017-11-19T02:27:13.508Z,97.90
2017-11-19T02:29:14.473Z,97.90
2017-11-19T02:31:15.552Z,98.00
2017-11-19T02:33:16.566Z,97.90
2017-11-19T02:35:17.756Z,98.00
2017-11-19T02:37:18.745Z,97.80
2017-11-19T02:39:19.785Z,97.80
2017-11-19T02:41:20.775Z,98.00
2017-11-19T02:43:21.852Z,97.90
2017-11-19T02:45:22.892Z,97.80
2017-11-19T02:47:23.864Z,97.90
2017-11-19T02:49:24.865Z,98.20
2017-11-19T02:51:25.855Z,98.30
2017-11-19T02:53:26.878Z,98.10
2017-11-19T02:55:27.953Z,98.10
2017-11-19T02:57:28.948Z,98.10
2017-11-19T02:59:29.937Z,97.90
2017-11-19T03:01:30.940Z,97.90
2017-11-19T03:03:31.913Z,98.00
2017-11-19T03:05:32.957Z,98.00
2017-11-19T03:07:33.973Z,98.00
2017-11-19T03:09:34.988Z,97.90
2017-11-19T03:11:36.151Z,97.90
2017-11-19T03:13:37.157Z,97.90
2017-11-19T03:15:38.227Z,98.00
2017-11-19T03:17:40.193Z,98.00
2017-11-19T03:19:41.202Z,97.90
2017-11-19T03:21:42.245Z,97.80
2017-11-19T03:23:43.849Z,97.30
2017-11-19T03:25:45.169Z,97.40
2017-11-19T03:27:46.206Z,97.20
2017-11-19T03:29:47.183Z,97.10
2017-11-19T03:31:48.222Z,97.10
2017-11-19T03:33:49.284Z,97.10
2017-11-19T03:35:50.300Z,97.10
2017-11-19T03:37:51.275Z,97.30
2017-11-19T03:39:52.276Z,97.20
2017-11-19T03:41:53.347Z,97.10
2017-11-19T03:43:54.358Z,97.10
2017-11-19T03:45:55.406Z,97.00
2017-11-19T03:47:56.430Z,97.10
2017-11-19T03:49:57.407Z,97.10
2017-11-19T03:51:58.414Z,96.90
2017-11-19T03:53:59.458Z,96.20
2017-11-19T03:56:00.445Z,96.40
2017-11-19T03:58:01.462Z,96.20
2017-11-19T04:00:02.486Z,96.30
2017-11-19T04:02:03.538Z,96.50
2017-11-19T04:04:04.623Z,96.20
2017-11-19T04:06:05.876Z,96.50
2017-11-19T04:08:06.935Z,96.70
2017-11-19T04:10:07.914Z,96.90
2017-11-19T04:12:08.897Z,96.80
2017-11-19T04:14:09.894Z,97.00
2017-11-19T04:16:11.057Z,97.00
2017-11-19T04:18:12.411Z,97.00
2017-11-19T04:20:13.473Z,97.00
2017-11-19T04:22:14.927Z,96.70
2017-11-19T04:24:16.407Z,96.70
2017-11-19T04:26:17.746Z,96.80
2017-11-19T04:28:19.974Z,96.90
2017-11-19T04:30:21.778Z,97.00
2017-11-19T04:32:22.790Z,97.00
2017-11-19T04:34:23.887Z,96.30
2017-11-19T04:36:24.947Z,96.50
2017-11-19T04:38:25.913Z,96.40
2017-11-19T04:40:26.913Z,96.10
2017-11-19T04:42:27.939Z,96.10
2017-11-19T04:44:29.066Z,96.40
2017-11-19T04:46:30.104Z,96.80
2017-11-19T04:48:31.099Z,96.30
2017-11-19T04:50:32.100Z,96.40
2017-11-19T04:52:33.624Z,96.20
2017-11-19T04:54:34.654Z,97.20
2017-11-19T04:56:36.394Z,97.90
2017-11-19T04:58:37.401Z,97.90
2017-11-19T05:00:39.117Z,98.40
2017-11-19T05:02:40.205Z,98.50
2017-11-19T05:04:41.194Z,98.20
2017-11-19T05:06:42.171Z,98.50
2017-11-19T05:08:43.187Z,98.70
2017-11-19T05:10:44.230Z,98.40
2017-11-19T05:12:45.486Z,98.20
2017-11-19T05:14:46.509Z,98.50
2017-11-19T05:16:47.599Z,98.70
2017-11-19T05:18:48.642Z,98.50
2017-11-19T05:20:49.636Z,99.20
2017-11-19T05:22:51.378Z,99.10
2017-11-19T05:24:52.383Z,99.00
2017-11-19T05:26:53.346Z,99.20
2017-11-19T05:28:54.402Z,99.10
2017-11-19T05:30:55.378Z,99.10
2017-11-19T05:32:56.464Z,99.10
2017-11-19T05:34:57.522Z,98.90
2017-11-19T05:36:58.486Z,99.10
2017-11-19T05:38:59.476Z,99.10
2017-11-19T05:41:00.458Z,99.00
2017-11-19T05:43:01.488Z,99.10
2017-11-19T05:45:02.495Z,99.20
2017-11-19T05:47:03.469Z,99.40
2017-11-19T05:49:04.496Z,99.40
2017-11-19T05:51:05.592Z,99.60
2017-11-19T05:53:06.630Z,99.50
2017-11-19T05:55:07.769Z,99.50
2017-11-19T05:57:08.816Z,99.50
2017-11-19T05:59:09.806Z,99.40
2017-11-19T06:01:10.876Z,99.30
2017-11-19T06:03:12.614Z,99.40
2017-11-19T06:05:13.578Z,99.40
2017-11-19T06:07:14.542Z,99.20
2017-11-19T06:09:15.549Z,99.60
2017-11-19T06:11:16.542Z,99.20
2017-11-19T06:13:17.618Z,99.20
2017-11-19T06:15:18.605Z,99.30
2017-11-19T06:17:19.711Z,99.10
2017-11-19T06:19:20.726Z,99.10
2017-11-19T06:21:21.716Z,99.00
2017-11-19T06:23:22.713Z,99.20
2017-11-19T06:25:23.833Z,99.00
2017-11-19T06:27:24.827Z,99.20
2017-11-19T06:29:25.895Z,98.90
2017-11-19T06:31:26.878Z,98.70
2017-11-19T06:33:27.868Z,98.60
2017-11-19T06:35:28.847Z,98.50
2017-11-19T06:37:29.815Z,98.60
2017-11-19T06:39:30.795Z,98.70
2017-11-19T06:41:31.768Z,98.80
2017-11-19T06:43:32.764Z,99.00
2017-11-19T06:45:33.905Z,98.90
2017-11-19T06:47:35.002Z,99.00
2017-11-19T06:49:36.057Z,99.00
2017-11-19T06:51:37.306Z,98.50
2017-11-19T06:53:38.363Z,99.00
2017-11-19T06:55:39.410Z,99.00
2017-11-19T06:57:40.449Z,99.00
2017-11-19T06:59:41.853Z,98.70
2017-11-19T07:01:42.908Z,98.70
2017-11-19T07:03:44.074Z,98.40
2017-11-19T07:05:45.110Z,98.20
2017-11-19T07:07:46.524Z,98.10
2017-11-19T07:09:48.338Z,98.10
2017-11-19T07:11:49.512Z,98.10
2017-11-19T07:13:50.509Z,98.10
2017-11-19T07:15:51.595Z,98.20
2017-11-19T07:17:52.568Z,97.90
2017-11-19T07:19:55.915Z,98.20
2017-11-19T07:21:57.233Z,98.00
2017-11-19T07:24:00.928Z,98.10
2017-11-19T07:26:12.730Z,97.80
2017-11-19T07:30:44.736Z,97.00
2017-11-19T07:32:47.269Z,95.80
2017-11-19T07:34:55.351Z,95.50
2017-11-19T07:36:56.548Z,95.60
2017-11-19T07:38:57.509Z,96.70
2017-11-19T07:40:58.529Z,96.50
2017-11-19T07:43:00.298Z,96.60
2017-11-19T07:45:01.362Z,97.30
2017-11-19T07:47:03.538Z,96.90
2017-11-19T07:49:04.732Z,96.90
2017-11-19T07:51:10.759Z,97.30
2017-11-19T07:53:12.623Z,97.80
2017-11-19T07:55:14.816Z,97.90
2017-11-19T07:57:15.851Z,98.00
2017-11-19T07:59:16.907Z,98.10
2017-11-19T08:01:17.932Z,98.00
2017-11-19T08:03:18.954Z,98.10
2017-11-19T08:05:21.243Z,98.30
2017-11-19T08:07:22.422Z,98.30
2017-11-19T08:09:23.621Z,97.90
2017-11-19T08:11:25.629Z,98.00
2017-11-19T08:13:26.703Z,97.70
2017-11-19T08:15:28.738Z,97.20
2017-11-19T08:17:29.802Z,96.90
2017-11-19T08:19:30.793Z,96.60
2017-11-19T08:21:31.889Z,96.10
2017-11-19T08:23:33.048Z,95.80
2017-11-19T08:25:34.054Z,95.60
2017-11-19T08:27:35.070Z,95.30
2017-11-19T08:29:36.194Z,95.70
2017-11-19T08:31:37.186Z,95.70
2017-11-19T08:33:38.162Z,96.00
2017-11-19T08:35:39.174Z,95.90
2017-11-19T08:37:40.167Z,96.40
2017-11-19T08:39:41.127Z,96.00
2017-11-19T08:41:42.159Z,96.60
2017-11-19T08:43:43.128Z,96.50
2017-11-19T08:45:44.107Z,94.50
2017-11-19T08:47:45.075Z,95.50
2017-11-19T08:49:46.092Z,95.30
2017-11-19T08:51:47.106Z,94.70
2017-11-19T08:53:48.135Z,95.10
2017-11-19T08:55:49.341Z,94.60
2017-11-19T08:57:51.768Z,94.40
2017-11-19T08:59:52.803Z,95.10
2017-11-19T09:01:53.825Z,96.30
2017-11-19T09:03:54.843Z,97.60
2017-11-19T09:05:55.850Z,97.20
2017-11-19T09:07:57.598Z,98.00
2017-11-19T09:09:59.334Z,98.20
2017-11-19T09:12:00.318Z,98.20
2017-11-19T09:14:01.427Z,97.50
2017-11-19T09:16:02.446Z,97.20
2017-11-19T09:18:03.590Z,97.10
2017-11-19T09:20:04.572Z,97.70
2017-11-19T09:22:06.115Z,98.00
2017-11-19T09:24:07.226Z,98.10
2017-11-19T09:26:08.246Z,97.90
2017-11-19T09:28:09.286Z,97.50
2017-11-19T09:30:10.269Z,97.90
2017-11-19T09:32:11.248Z,97.20
2017-11-19T09:34:12.485Z,97.70
2017-11-19T09:36:13.562Z,97.20
2017-11-19T09:38:14.747Z,97.30
2017-11-19T09:40:15.733Z,97.20
2017-11-19T09:42:16.702Z,96.60
2017-11-19T09:44:17.833Z,96.00
2017-11-19T09:46:18.816Z,95.70
2017-11-19T09:48:19.850Z,96.50
2017-11-19T09:50:20.860Z,96.80
2017-11-19T09:52:21.891Z,96.90
2017-11-19T09:54:23.006Z,96.30
2017-11-19T09:56:24.170Z,96.80
2017-11-19T09:58:25.149Z,95.30
2017-11-19T10:00:26.148Z,95.20
2017-11-19T10:02:27.148Z,95.10
2017-11-19T10:04:28.115Z,95.80
2017-11-19T10:06:29.074Z,96.30
2017-11-19T10:08:30.106Z,96.50
2017-11-19T10:10:31.295Z,97.80
2017-11-19T10:12:32.244Z,97.70
2017-11-19T10:14:33.237Z,97.70
2017-11-19T10:16:34.213Z,97.70
2017-11-19T10:18:35.254Z,97.70
2017-11-19T10:20:37.082Z,97.70
2017-11-19T10:22:38.136Z,97.50
2017-11-19T10:24:39.138Z,96.20
2017-11-19T10:26:40.142Z,95.80
2017-11-19T10:28:41.178Z,96.30
2017-11-19T10:30:42.137Z,93.10
2017-11-19T10:32:43.124Z,92.40
2017-11-19T10:34:44.114Z,92.30
2017-11-19T10:36:45.130Z,92.70
2017-11-19T10:38:46.097Z,90.00
2017-11-19T10:40:47.150Z,83.10
2017-11-19T10:42:48.203Z,88.40
2017-11-19T10:44:49.347Z,89.10
2017-11-19T10:46:50.338Z,90.20
2017-11-19T10:48:51.318Z,90.90
2017-11-19T10:50:52.357Z,91.60
2017-11-19T10:52:53.444Z,90.90
2017-11-19T10:54:54.538Z,91.30
2017-11-19T10:56:55.500Z,91.50
2017-11-19T10:58:56.502Z,91.50
2017-11-19T11:00:57.534Z,92.00
2017-11-19T11:02:58.538Z,93.00
2017-11-19T11:04:59.536Z,93.90
2017-11-19T11:07:00.617Z,94.50
2017-11-19T11:09:01.618Z,94.70
2017-11-19T11:11:02.616Z,96.50
2017-11-19T11:13:03.608Z,96.10
2017-11-19T11:15:04.615Z,96.20
2017-11-19T11:17:05.855Z,96.30
2017-11-19T11:19:06.882Z,96.30
2017-11-19T11:21:07.910Z,95.50
2017-11-19T11:23:08.977Z,96.20
2017-11-19T11:25:09.946Z,95.00
2017-11-19T11:27:11.046Z,94.90
2017-11-19T11:29:12.069Z,95.70
2017-11-19T11:31:13.031Z,94.30
2017-11-19T11:33:14.034Z,94.90
2017-11-19T11:35:15.042Z,95.10
2017-11-19T11:37:16.041Z,94.40
2017-11-19T11:39:17.019Z,94.30
2017-11-19T11:41:18.005Z,94.00
2017-11-19T11:43:19.852Z,92.90
2017-11-19T11:45:20.861Z,93.20
2017-11-19T11:47:21.843Z,91.90
2017-11-19T11:49:22.830Z,92.30
2017-11-19T11:51:23.826Z,89.60
2017-11-19T11:53:24.825Z,83.70
2017-11-19T11:55:25.854Z,81.00
2017-11-19T11:57:27.123Z,81.70
2017-11-19T11:59:28.198Z,79.10
2017-11-19T12:01:29.191Z,80.80
2017-11-19T12:03:30.173Z,82.70
2017-11-19T12:05:31.174Z,85.70
2017-11-19T12:07:32.181Z,86.00
2017-11-19T12:09:33.155Z,88.10
2017-11-19T12:11:34.176Z,87.70
2017-11-19T12:13:35.174Z,88.10
2017-11-19T12:15:36.155Z,86.50
2017-11-19T12:17:43.234Z,87.50
2017-11-19T12:19:44.261Z,87.50
2017-11-19T12:21:45.585Z,86.70
2017-11-19T12:23:46.642Z,88.40
2017-11-19T12:25:47.636Z,88.70
2017-11-19T12:27:48.682Z,88.90
2017-11-19T12:29:49.708Z,89.90
2017-11-19T12:31:50.786Z,89.60
2017-11-19T12:33:51.804Z,89.80
2017-11-19T12:35:52.970Z,90.00
2017-11-19T12:37:53.974Z,86.90
2017-11-19T12:39:55.110Z,90.10
2017-11-19T12:41:56.317Z,89.00
2017-11-19T12:43:57.348Z,89.80
2017-11-19T12:45:58.435Z,90.10
2017-11-19T12:47:59.473Z,89.40
2017-11-19T12:50:00.430Z,89.40
2017-11-19T12:52:01.410Z,89.70
2017-11-19T12:54:02.411Z,90.60
2017-11-19T12:56:03.357Z,91.10
2017-11-19T12:58:04.365Z,92.60
2017-11-19T13:00:05.390Z,89.10
2017-11-19T13:02:06.370Z,90.20
2017-11-19T13:04:07.408Z,92.10
2017-11-19T13:06:08.390Z,92.70
2017-11-19T13:08:09.374Z,94.10
2017-11-19T13:10:10.352Z,94.70
2017-11-19T13:12:12.077Z,96.00
2017-11-19T13:14:13.182Z,96.00
2017-11-19T13:16:14.133Z,95.70
2017-11-19T13:18:15.157Z,96.80
2017-11-19T13:20:16.859Z,97.30
2017-11-19T13:22:17.847Z,97.30
2017-11-19T13:24:18.798Z,97.00
2017-11-19T13:26:19.923Z,97.20
2017-11-19T13:28:20.890Z,97.20
2017-11-19T13:30:21.902Z,95.20
2017-11-19T13:32:22.948Z,94.20
2017-11-19T13:34:23.982Z,95.50
2017-11-19T13:36:24.990Z,93.00
2017-11-19T13:38:26.154Z,92.50
2017-11-19T13:40:27.141Z,93.10
2017-11-19T13:42:28.168Z,93.20
2017-11-19T13:44:29.190Z,89.90
2017-11-19T13:46:30.321Z,90.20
2017-11-19T13:48:31.290Z,88.20
2017-11-19T13:50:32.344Z,89.10
2017-11-19T13:52:33.348Z,88.80
2017-11-19T13:54:34.462Z,88.20
2017-11-19T13:56:35.453Z,87.40
2017-11-19T13:58:36.443Z,88.40
2017-11-19T14:00:37.411Z,90.40
2017-11-19T14:02:38.516Z,87.20
2017-11-19T14:04:40.355Z,86.70
2017-11-19T14:06:41.346Z,86.80
2017-11-19T14:08:42.460Z,88.40
2017-11-19T14:10:44.475Z,90.10
2017-11-19T14:12:45.591Z,89.50
2017-11-19T14:14:47.525Z,87.50
2017-11-19T14:16:48.664Z,89.70
2017-11-19T14:18:49.782Z,90.00
2017-11-19T14:20:51.035Z,90.60
2017-11-19T14:22:52.081Z,91.60
2017-11-19T14:24:53.118Z,90.50
2017-11-19T14:26:54.842Z,91.60
2017-11-19T14:28:55.814Z,91.60
2017-11-19T14:30:56.870Z,91.70
2017-11-19T14:32:58.742Z,92.30
2017-11-19T14:34:59.713Z,92.30
2017-11-19T14:37:00.695Z,92.50
2017-11-19T14:39:01.693Z,93.20
2017-11-19T14:41:02.670Z,93.20
2017-11-19T14:43:03.677Z,93.50
2017-11-19T14:45:05.469Z,93.80
2017-11-19T14:47:06.443Z,93.60
2017-11-19T14:49:07.426Z,93.10
2017-11-19T14:51:08.435Z,94.00
2017-11-19T14:53:09.434Z,93.60
2017-11-19T14:55:11.130Z,93.70
2017-11-19T14:57:12.245Z,93.70
2017-11-19T14:59:13.228Z,93.10
2017-11-19T15:01:14.212Z,92.70
2017-11-19T15:03:15.311Z,93.60
2017-11-19T15:05:16.320Z,93.80
2017-11-19T15:07:18.361Z,93.60
2017-11-19T15:09:19.488Z,93.50
2017-11-19T15:11:20.507Z,94.20
2017-11-19T15:13:21.566Z,93.40
2017-11-19T15:15:22.678Z,94.80
2017-11-19T15:17:23.642Z,94.70
2017-11-19T15:19:25.396Z,95.20
2017-11-19T15:21:27.175Z,95.40
2017-11-19T15:23:28.152Z,95.40
2017-11-19T15:25:29.122Z,95.80
2017-11-19T15:27:30.197Z,96.20
2017-11-19T15:29:31.394Z,95.70
2017-11-19T15:31:33.950Z,95.90
2017-11-19T15:33:35.507Z,95.60
2017-11-19T15:35:36.976Z,95.20
2017-11-19T15:37:38.937Z,94.10
2017-11-19T15:39:40.416Z,94.10
2017-11-19T15:41:41.415Z,92.80
2017-11-19T15:43:42.388Z,92.50
2017-11-19T15:45:43.414Z,92.60
2017-11-19T15:47:44.425Z,92.10
2017-11-19T15:49:45.419Z,92.00
2017-11-19T15:51:46.802Z,92.10
2017-11-19T15:53:48.226Z,91.90
2017-11-19T15:55:49.341Z,92.50
2017-11-19T15:57:53.210Z,91.60
2017-11-19T15:59:54.278Z,92.00
2017-11-19T16:01:57.925Z,93.10
2017-11-19T16:03:58.924Z,94.10
2017-11-19T16:06:00.111Z,93.60
2017-11-19T16:08:01.083Z,94.50
2017-11-19T16:10:02.087Z,94.00
2017-11-19T16:12:03.132Z,93.70
2017-11-19T16:14:04.170Z,93.70
2017-11-19T16:16:05.157Z,93.90
2017-11-19T16:18:06.155Z,93.40
2017-11-19T16:20:07.191Z,93.60
2017-11-19T16:22:09.136Z,93.70
2017-11-19T16:24:10.139Z,93.70
2017-11-19T16:26:11.206Z,93.50
2017-11-19T16:28:12.288Z,93.00
2017-11-19T16:30:13.284Z,93.10
2017-11-19T16:32:14.278Z,93.10
2017-11-19T16:36:48.780Z,93.90
2017-11-19T16:38:49.810Z,94.00
2017-11-19T16:40:51.551Z,94.40
2017-11-19T16:42:52.670Z,94.40
2017-11-19T16:44:53.636Z,94.60
2017-11-19T16:46:54.652Z,95.20
2017-11-19T16:48:55.600Z,95.40
2017-11-19T16:50:56.561Z,95.70
2017-11-19T16:52:57.799Z,95.50
2017-11-19T16:54:58.818Z,95.50
2017-11-19T16:56:59.861Z,95.40
2017-11-19T16:59:00.841Z,94.80
2017-11-19T17:01:01.832Z,95.00
2017-11-19T17:03:02.985Z,95.00
2017-11-19T17:05:04.710Z,95.00
2017-11-19T17:07:05.713Z,95.00
2017-11-19T17:09:06.730Z,95.30
2017-11-19T17:11:07.725Z,95.30
2017-11-19T17:13:08.736Z,95.20
2017-11-19T17:15:10.445Z,96.70
2017-11-19T17:17:11.424Z,96.70
2017-11-19T17:19:12.618Z,97.20
2017-11-19T17:21:13.552Z,96.80
2017-11-19T17:23:14.783Z,97.20
2017-11-19T17:25:15.741Z,96.90
2017-11-19T17:27:17.454Z,97.40
2017-11-19T17:29:18.667Z,97.40
2017-11-19T17:31:20.402Z,97.10
2017-11-19T17:33:21.404Z,97.00
2017-11-19T17:35:22.434Z,97.50
2017-11-19T17:37:23.421Z,97.60
2017-11-19T17:39:24.391Z,97.90
2017-11-19T17:41:25.393Z,98.10
2017-11-19T17:43:26.342Z,98.50
2017-11-19T17:45:27.317Z,98.50
2017-11-19T17:47:28.296Z,98.50
2017-11-19T17:49:30.006Z,98.80
2017-11-19T17:51:30.962Z,98.80
2017-11-19T17:53:31.941Z,98.80
2017-11-19T17:55:32.925Z,99.00
2017-11-19T17:57:33.927Z,99.10
2017-11-19T17:59:34.876Z,99.10
2017-11-19T18:01:35.869Z,99.20
2017-11-19T18:03:36.865Z,99.20
2017-11-19T18:05:37.833Z,99.20
2017-11-19T18:07:38.801Z,99.60
2017-11-19T18:09:40.120Z,99.40
2017-11-19T18:11:41.126Z,99.40
2017-11-19T18:13:42.118Z,99.50
2017-11-19T18:15:43.853Z,99.70
2017-11-19T18:17:49.098Z,99.70
2017-11-19T18:19:50.126Z,99.50
2017-11-19T18:21:51.543Z,99.50
2017-11-19T18:23:52.730Z,99.40
2017-11-19T18:25:54.098Z,99.60
2017-11-19T18:27:55.050Z,99.70
2017-11-19T18:30:02.280Z,99.90
2017-11-19T18:32:03.454Z,99.90
2017-11-19T18:34:04.417Z,99.90
2017-11-19T18:36:05.381Z,99.90
2017-11-19T18:38:06.351Z,99.80
2017-11-19T18:40:07.371Z,99.90
2017-11-19T18:42:12.489Z,99.40
2017-11-19T18:44:13.486Z,99.60
2017-11-19T18:46:14.537Z,99.30
2017-11-19T18:48:15.525Z,99.10
2017-11-19T18:50:16.698Z,99.20
2017-11-19T18:52:17.981Z,98.90
2017-11-19T18:54:18.965Z,99.30
2017-11-19T18:56:19.926Z,98.90
2017-11-19T18:58:20.869Z,98.90
2017-11-19T19:00:21.886Z,99.20
2017-11-19T19:02:23.076Z,99.40
2017-11-19T19:04:24.044Z,99.30
2017-11-19T19:06:25.017Z,99.30
2017-11-19T19:08:26.735Z,99.60
2017-11-19T19:10:27.688Z,99.60
2017-11-19T19:12:28.666Z,99.50
2017-11-19T19:14:29.651Z,99.90
2017-11-19T19:16:30.633Z,99.90
2017-11-19T19:18:31.686Z,99.90
2017-11-19T19:20:32.719Z,99.90
2017-11-19T19:22:33.725Z,99.90
2017-11-19T19:24:35.513Z,99.90
2017-11-19T19:26:36.486Z,99.90
2017-11-19T19:28:37.481Z,99.90
2017-11-19T19:30:38.492Z,99.90
2017-11-19T19:32:39.449Z,99.90
2017-11-19T19:34:40.429Z,99.90
2017-11-19T19:36:42.142Z,99.90
2017-11-19T19:38:43.345Z,99.90
2017-11-19T19:40:44.313Z,99.90
2017-11-19T19:42:45.296Z,99.90
2017-11-19T19:44:46.292Z,99.90
2017-11-19T19:46:47.240Z,99.90
2017-11-19T19:48:48.229Z,99.90
2017-11-19T19:50:49.232Z,99.90
2017-11-19T19:52:50.189Z,99.30
2017-11-19T19:54:51.209Z,99.40
2017-11-19T19:56:52.929Z,99.50
2017-11-19T19:58:53.921Z,99.50
2017-11-19T20:00:55.641Z,99.20
2017-11-19T20:02:56.621Z,99.20
2017-11-19T20:04:57.668Z,99.50
2017-11-19T20:06:58.673Z,99.60
2017-11-19T20:08:59.670Z,99.50
2017-11-19T20:11:00.840Z,99.00
2017-11-19T20:13:01.796Z,99.40
2017-11-19T20:15:03.052Z,99.60
2017-11-19T20:17:04.115Z,99.40
2017-11-19T20:19:05.170Z,99.60
2017-11-19T20:21:06.185Z,99.80
2017-11-19T20:23:07.255Z,99.90
2017-11-19T20:25:08.265Z,99.90
2017-11-19T20:27:09.293Z,99.90
2017-11-19T20:29:12.174Z,99.90
2017-11-19T20:31:13.228Z,99.90
2017-11-19T20:33:14.217Z,99.90
2017-11-19T20:35:15.193Z,99.90
2017-11-19T20:37:16.614Z,99.80
2017-11-19T20:39:17.723Z,99.90
2017-11-19T20:41:18.760Z,99.90
2017-11-19T20:43:19.758Z,99.90
2017-11-19T20:45:21.434Z,99.90
2017-11-19T20:47:22.493Z,99.90
2017-11-19T20:49:24.014Z,99.90
2017-11-19T20:51:25.100Z,99.90
2017-11-19T20:53:26.110Z,99.90
2017-11-19T20:55:27.092Z,99.90
2017-11-19T20:57:28.330Z,99.90
2017-11-19T20:59:29.466Z,99.90
2017-11-19T21:01:30.480Z,99.90
2017-11-19T21:03:32.791Z,99.90
2017-11-19T21:05:34.099Z,99.70
2017-11-19T21:07:35.114Z,99.90
2017-11-19T21:09:36.168Z,99.90
2017-11-19T21:11:37.186Z,99.90
2017-11-19T21:13:38.181Z,99.90
2017-11-19T21:15:39.288Z,99.60
2017-11-19T21:17:40.616Z,99.70
2017-11-19T21:19:43.451Z,99.60
2017-11-19T21:21:44.442Z,99.50
2017-11-19T21:23:45.440Z,99.80
2017-11-19T21:25:46.468Z,99.90
2017-11-19T21:27:47.458Z,99.90
2017-11-19T21:29:48.521Z,99.90
2017-11-19T21:31:49.531Z,99.90
2017-11-19T21:33:50.501Z,99.90
2017-11-19T21:35:51.542Z,99.90
2017-11-19T21:37:52.583Z,99.90
2017-11-19T21:39:53.580Z,99.90
2017-11-19T21:41:55.344Z,99.90
2017-11-19T21:43:56.348Z,99.90
2017-11-19T21:45:57.317Z,99.90
2017-11-19T21:47:58.330Z,99.90
2017-11-19T21:49:59.338Z,99.80
2017-11-19T21:52:00.372Z,99.90
2017-11-19T21:54:02.105Z,99.70
2017-11-19T21:56:03.128Z,99.80
2017-11-19T21:58:04.133Z,99.60
2017-11-19T22:00:05.246Z,99.70
2017-11-19T22:02:06.201Z,99.60
2017-11-19T22:04:07.341Z,99.60
2017-11-19T22:06:08.381Z,99.70
2017-11-19T22:08:09.421Z,99.60
2017-11-19T22:10:10.379Z,99.80
2017-11-19T22:12:11.389Z,99.90
2017-11-19T22:14:12.430Z,99.90
2017-11-19T22:16:13.458Z,99.90
2017-11-19T22:18:15.529Z,99.90
2017-11-19T22:20:17.619Z,99.70
2017-11-19T22:22:18.761Z,99.90
2017-11-19T22:24:19.891Z,99.90
2017-11-19T22:26:20.907Z,99.80
2017-11-19T22:28:21.939Z,99.90
2017-11-19T22:30:22.957Z,99.80
2017-11-19T22:32:23.955Z,99.90
2017-11-19T22:34:24.980Z,99.80
2017-11-19T22:36:25.992Z,99.70
2017-11-19T22:38:26.981Z,99.60
2017-11-19T22:40:27.996Z,99.50
2017-11-19T22:42:29.020Z,99.60
2017-11-19T22:44:30.757Z,99.80
2017-11-19T22:46:31.780Z,99.70
2017-11-19T22:48:32.931Z,99.50
2017-11-19T22:50:33.965Z,99.40
2017-11-19T22:52:34.955Z,99.30
2017-11-19T22:54:35.945Z,98.80
2017-11-19T22:56:36.941Z,98.90
2017-11-19T22:58:37.928Z,98.80
2017-11-19T23:00:38.968Z,98.20
2017-11-19T23:02:40.045Z,98.80
2017-11-19T23:04:41.082Z,98.40
2017-11-19T23:06:42.181Z,98.80
2017-11-19T23:08:43.158Z,98.70
2017-11-19T23:10:44.218Z,98.70
2017-11-19T23:12:45.194Z,98.90
2017-11-19T23:14:46.229Z,99.00
2017-11-19T23:16:47.438Z,98.90
2017-11-19T23:18:48.494Z,99.00
2017-11-19T23:20:49.539Z,99.00
2017-11-19T23:22:51.237Z,98.90
2017-11-19T23:24:52.397Z,98.90
2017-11-19T23:26:53.400Z,98.40
2017-11-19T23:28:55.191Z,98.70
2017-11-19T23:30:56.153Z,98.60
2017-11-19T23:32:57.102Z,98.40
2017-11-19T23:34:58.087Z,98.40
2017-11-19T23:36:59.159Z,98.50
2017-11-19T23:39:00.877Z,98.70
2017-11-19T23:41:01.951Z,98.70
2017-11-19T23:43:02.921Z,98.20
2017-11-19T23:45:04.650Z,98.30
2017-11-19T23:47:05.693Z,98.30
2017-11-19T23:49:07.322Z,98.00
2017-11-19T23:51:08.371Z,97.80
2017-11-19T23:53:09.629Z,97.80
2017-11-19T23:55:10.757Z,97.70
2017-11-19T23:57:11.865Z,97.30
2017-11-19T23:59:12.837Z,97.30
